createdAt,value
2022-11-14T00:00:00.265Z,1010
2022-11-14T00:05:00.266Z,1010
2022-11-14T00:10:00.244Z,1010
2022-11-14T00:15:00.166Z,1010
2022-11-14T00:20:00.232Z,1010
2022-11-14T00:25:00.224Z,1010
2022-11-14T00:30:00.242Z,1010
2022-11-14T00:35:00.274Z,1010
2022-11-14T00:40:00.294Z,1010
2022-11-14T00:45:00.218Z,1010
2022-11-14T00:50:00.285Z,1010
2022-11-14T00:55:00.202Z,1010
2022-11-14T01:00:00.257Z,1009
2022-11-14T01:05:00.153Z,1009
2022-11-14T01:10:00.300Z,1009
2022-11-14T01:15:00.300Z,1009
2022-11-14T01:20:00.172Z,1009
2022-11-14T01:25:00.247Z,1009
2022-11-14T01:30:00.220Z,1009
2022-11-14T01:35:00.229Z,1009
2022-11-14T01:40:00.275Z,1009
2022-11-14T01:45:00.274Z,1009
2022-11-14T01:50:00.252Z,1009
2022-11-14T01:55:00.255Z,1009
2022-11-14T02:00:00.286Z,1009
2022-11-14T02:05:00.161Z,1009
2022-11-14T02:10:00.205Z,1009
2022-11-14T02:15:00.156Z,1009
2022-11-14T02:20:04.770Z,1009
2022-11-14T02:25:00.255Z,1008
2022-11-14T02:30:00.293Z,1008
2022-11-14T02:35:00.239Z,1008
2022-11-14T02:40:00.288Z,1008
2022-11-14T02:45:00.148Z,1008
2022-11-14T02:50:00.230Z,1008
2022-11-14T02:55:00.317Z,1008
2022-11-14T03:00:00.174Z,1008
2022-11-14T03:05:00.281Z,1008
2022-11-14T03:10:00.234Z,1008
2022-11-14T03:15:00.249Z,1008
2022-11-14T03:20:00.246Z,1008
2022-11-14T03:25:00.240Z,1008
2022-11-14T03:30:00.249Z,1008
2022-11-14T03:35:00.147Z,1008
2022-11-14T03:40:00.226Z,1008
2022-11-14T03:45:00.229Z,1008
2022-11-14T03:50:00.285Z,1008
2022-11-14T03:55:00.271Z,1008
2022-11-14T04:00:00.337Z,1008
2022-11-14T04:05:00.254Z,1008
2022-11-14T04:10:00.246Z,1008
2022-11-14T04:15:00.283Z,1008
2022-11-14T04:20:00.273Z,1008
2022-11-14T04:25:00.258Z,1008
2022-11-14T04:30:00.303Z,1008
2022-11-14T04:35:00.269Z,1008
2022-11-14T04:40:00.234Z,1008
2022-11-14T04:45:00.401Z,1007
2022-11-14T04:50:00.321Z,1008
2022-11-14T04:55:00.250Z,1008
2022-11-14T05:00:00.317Z,1008
2022-11-14T05:05:00.246Z,1008
2022-11-14T05:10:00.267Z,1008
2022-11-14T05:15:00.248Z,1007
2022-11-14T05:20:00.234Z,1007
2022-11-14T05:25:00.247Z,1007
2022-11-14T05:30:00.325Z,1007
2022-11-14T05:35:00.245Z,1007
2022-11-14T05:40:00.258Z,1007
2022-11-14T05:45:00.211Z,1007
2022-11-14T05:50:00.265Z,1007
2022-11-14T05:55:00.292Z,1007
2022-11-14T06:00:00.347Z,1007
2022-11-14T06:05:00.296Z,1007
2022-11-14T06:10:00.214Z,1007
2022-11-14T06:15:00.254Z,1007
2022-11-14T06:20:00.278Z,1007
2022-11-14T06:25:00.271Z,1007
2022-11-14T06:30:00.328Z,1007
2022-11-14T06:35:00.263Z,1007
2022-11-14T06:40:00.276Z,1007
2022-11-14T06:45:00.233Z,1007
2022-11-14T06:50:00.237Z,1007
2022-11-14T06:55:00.275Z,1007
2022-11-14T07:00:00.278Z,1007
2022-11-14T07:05:00.241Z,1007
2022-11-14T07:10:00.282Z,1007
2022-11-14T07:15:00.271Z,1007
2022-11-14T07:20:00.242Z,1007
2022-11-14T07:25:00.239Z,1007
2022-11-14T07:30:00.265Z,1007
2022-11-14T07:35:02.453Z,1007
2022-11-14T07:40:00.208Z,1007
2022-11-14T07:45:00.267Z,1007
2022-11-14T07:50:00.237Z,1007
2022-11-14T07:55:00.227Z,1007
2022-11-14T08:00:00.320Z,1007
2022-11-14T08:05:00.279Z,1007
2022-11-14T08:10:00.307Z,1007
2022-11-14T08:15:00.252Z,1007
2022-11-14T08:20:00.227Z,1007
2022-11-14T08:25:00.297Z,1007
2022-11-14T08:30:00.304Z,1007
2022-11-14T08:35:00.292Z,1007
2022-11-14T08:40:00.276Z,1007
2022-11-14T08:45:00.274Z,1007
2022-11-14T08:50:00.296Z,1007
2022-11-14T08:55:00.284Z,1007
2022-11-14T09:00:00.315Z,1007
2022-11-14T09:05:00.398Z,1007
2022-11-14T09:10:00.310Z,1007
2022-11-14T09:15:00.488Z,1007
2022-11-14T09:20:00.250Z,1007
2022-11-14T09:25:00.232Z,1007
2022-11-14T09:30:00.296Z,1007
2022-11-14T09:35:00.289Z,1007
2022-11-14T09:40:00.276Z,1007
2022-11-14T09:45:00.269Z,1007
2022-11-14T09:50:00.307Z,1007
2022-11-14T09:55:00.244Z,1007
2022-11-14T10:00:00.347Z,1007
2022-11-14T10:05:00.285Z,1007
2022-11-14T10:10:00.273Z,1007
2022-11-14T10:15:00.265Z,1007
2022-11-14T10:20:00.231Z,1007
2022-11-14T10:25:00.268Z,1006
2022-11-14T10:30:00.342Z,1007
2022-11-14T10:35:00.295Z,1007
2022-11-14T10:40:00.356Z,1007
2022-11-14T10:45:00.233Z,1007
2022-11-14T10:50:00.309Z,1007
2022-11-14T10:55:00.346Z,1007
2022-11-14T11:00:00.288Z,1007
2022-11-14T11:05:00.299Z,1007
2022-11-14T11:10:00.286Z,1006
2022-11-14T11:15:00.268Z,1006
2022-11-14T11:20:03.893Z,1006
2022-11-14T11:25:00.280Z,1006
2022-11-14T11:30:00.267Z,1006
2022-11-14T11:35:00.245Z,1006
2022-11-14T11:40:00.310Z,1006
2022-11-14T11:45:00.253Z,1006
2022-11-14T11:50:00.241Z,1006
2022-11-14T11:55:00.302Z,1005
2022-11-14T12:00:00.249Z,1005
2022-11-14T12:05:00.249Z,1005
2022-11-14T12:10:11.156Z,1005
2022-11-14T12:15:00.235Z,1006
2022-11-14T12:20:00.232Z,1005
2022-11-14T12:25:00.253Z,1005
2022-11-14T12:30:00.270Z,1005
2022-11-14T12:35:00.401Z,1005
2022-11-14T12:40:00.355Z,1006
2022-11-14T12:45:00.289Z,1006
2022-11-14T12:50:00.230Z,1006
2022-11-14T12:55:00.304Z,1005
2022-11-14T13:00:00.312Z,1005
2022-11-14T13:05:00.234Z,1005
2022-11-14T13:10:00.290Z,1005
2022-11-14T13:15:00.271Z,1005
2022-11-14T13:20:00.255Z,1005
2022-11-14T13:25:00.346Z,1005
2022-11-14T13:30:00.330Z,1005
2022-11-14T13:35:00.280Z,1005
2022-11-14T13:40:00.302Z,1005
2022-11-14T13:45:00.273Z,1005
2022-11-14T13:50:00.253Z,1005
2022-11-14T13:55:00.259Z,1005
2022-11-14T14:00:00.317Z,1005
2022-11-14T14:05:00.311Z,1005
2022-11-14T14:10:00.284Z,1005
2022-11-14T14:15:00.294Z,1005
2022-11-14T14:20:00.298Z,1005
2022-11-14T14:25:00.258Z,1005
2022-11-14T14:30:00.330Z,1005
2022-11-14T14:35:00.335Z,1004
2022-11-14T14:40:00.311Z,1004
2022-11-14T14:45:00.247Z,1004
2022-11-14T14:50:00.317Z,1004
2022-11-14T14:55:00.284Z,1004
2022-11-14T15:00:00.354Z,1004
2022-11-14T15:05:00.322Z,1004
2022-11-14T15:10:00.277Z,1004
2022-11-14T15:15:00.310Z,1004
2022-11-14T15:20:00.309Z,1004
2022-11-14T15:25:00.263Z,1004
2022-11-14T15:30:00.328Z,1004
2022-11-14T15:35:00.294Z,1004
2022-11-14T15:40:00.238Z,1004
2022-11-14T15:45:00.323Z,1004
2022-11-14T15:50:00.330Z,1004
2022-11-14T15:55:00.209Z,1004
2022-11-14T16:00:00.310Z,1004
2022-11-14T16:05:00.282Z,1004
2022-11-14T16:10:00.215Z,1004
2022-11-14T16:15:00.232Z,1004
2022-11-14T16:20:00.247Z,1004
2022-11-14T16:25:00.265Z,1004
2022-11-14T16:30:00.281Z,1004
2022-11-14T16:35:00.311Z,1004
2022-11-14T16:40:00.464Z,1004
2022-11-14T16:45:00.342Z,1004
2022-11-14T16:50:00.363Z,1004
2022-11-14T16:55:00.263Z,1004
2022-11-14T17:00:00.354Z,1004
2022-11-14T17:05:00.253Z,1004
2022-11-14T17:10:00.205Z,1004
2022-11-14T17:15:00.234Z,1004
2022-11-14T17:20:00.208Z,1004
2022-11-14T17:25:00.239Z,1003
2022-11-14T17:30:00.262Z,1004
2022-11-14T17:35:00.250Z,1003
2022-11-14T17:40:00.283Z,1003
2022-11-14T17:45:00.268Z,1003
2022-11-14T17:50:00.333Z,1003
2022-11-14T17:55:00.229Z,1003
2022-11-14T18:00:00.335Z,1003
2022-11-14T18:05:00.287Z,1003
2022-11-14T18:10:00.236Z,1003
2022-11-14T18:15:00.213Z,1003
2022-11-14T18:20:00.272Z,1003
2022-11-14T18:25:04.814Z,1003
2022-11-14T18:30:08.414Z,1003
2022-11-14T18:35:00.230Z,1003
2022-11-14T18:40:00.368Z,1003
2022-11-14T18:45:00.310Z,1003
2022-11-14T18:50:00.294Z,1003
2022-11-14T18:55:00.283Z,1003
2022-11-14T19:00:00.341Z,1003
2022-11-14T19:05:00.287Z,1003
2022-11-14T19:10:00.237Z,1003
2022-11-14T19:15:00.305Z,1003
2022-11-14T19:20:00.354Z,1003
2022-11-14T19:25:00.257Z,1003
2022-11-14T19:30:00.310Z,1003
2022-11-14T19:35:00.297Z,1003
2022-11-14T19:40:00.295Z,1003
2022-11-14T19:45:00.247Z,1003
2022-11-14T19:50:00.276Z,1003
2022-11-14T19:55:00.324Z,1003
2022-11-14T20:00:00.278Z,1003
2022-11-14T20:05:00.255Z,1003
2022-11-14T20:10:00.268Z,1003
2022-11-14T20:15:00.297Z,1003
2022-11-14T20:20:00.240Z,1003
2022-11-14T20:25:00.537Z,1003
2022-11-14T20:30:00.273Z,1003
2022-11-14T20:35:00.249Z,1003
2022-11-14T20:40:00.236Z,1003
2022-11-14T20:45:00.301Z,1003
2022-11-14T20:50:00.297Z,1003
2022-11-14T20:55:00.282Z,1004
2022-11-14T21:00:00.330Z,1003
2022-11-14T21:05:00.271Z,1003
2022-11-14T21:10:00.265Z,1003
2022-11-14T21:15:00.212Z,1003
2022-11-14T21:20:00.247Z,1004
2022-11-14T21:25:00.260Z,1004
2022-11-14T21:30:00.328Z,1004
2022-11-14T21:35:01.741Z,1003
2022-11-14T21:40:00.205Z,1003
2022-11-14T21:45:00.288Z,1003
2022-11-14T21:50:01.404Z,1003
2022-11-14T21:55:00.242Z,1003
2022-11-14T22:00:00.270Z,1003
2022-11-14T22:05:00.252Z,1003
2022-11-14T22:10:00.226Z,1003
2022-11-14T22:15:00.263Z,1003
2022-11-14T22:20:00.259Z,1003
2022-11-14T22:25:00.290Z,1003
2022-11-14T22:30:00.279Z,1003
2022-11-14T22:35:00.241Z,1003
2022-11-14T22:40:00.261Z,1003
2022-11-14T22:45:00.286Z,1003
2022-11-14T22:50:00.219Z,1003
2022-11-14T22:55:00.230Z,1003
2022-11-14T23:00:00.312Z,1003
2022-11-14T23:05:00.183Z,1003
2022-11-14T23:10:00.249Z,1003
2022-11-14T23:15:00.269Z,1003
2022-11-14T23:20:00.257Z,1003
2022-11-14T23:25:00.228Z,1003
2022-11-14T23:30:00.176Z,1003
2022-11-14T23:35:00.249Z,1003
2022-11-14T23:40:00.260Z,1003
2022-11-14T23:45:00.191Z,1003
2022-11-14T23:50:00.268Z,1003
2022-11-14T23:55:00.310Z,1003
